Time;durP1;ratioP1;P1;durP2;ratioP2;P2;SDS_P1;SDS_P2;PMS_P1;PMS_P2;Temp;Humidity;BMP_temperature;BMP_pressure;BME280_temperature;BME280_humidity;BME280_pressure;Samples;Min_cycle;Max_cycle;Signal;HPM_P1;HPM_P2
2022/12/01 00:01:19;;;;;;;0.07;0.07;;;;;;;4.15;100.00;99186.16;4962779;28;20297;-60
2022/12/01 00:03:46;;;;;;;0.00;0.00;;;;;;;4.08;100.00;99182.28;4959563;28;20238;-60
2022/12/01 00:06:15;;;;;;;0.00;0.00;;;;;;;4.05;100.00;99180.69;4962312;28;22134;-60
2022/12/01 00:10:24;;;;;;;0.00;0.00;;;;;;;4.03;100.00;99176.56;4960240;28;20296;-60
2022/12/01 00:11:31;;;;;;;0.10;0.10;;;;;;;4.03;100.00;99184.31;4960231;28;20257;-60
2022/12/01 00:13:58;;;;;;;0.00;0.00;;;;;;;3.88;100.00;99180.91;4962629;28;20589;-61
2022/12/01 00:16:24;;;;;;;0.10;0.10;;;;;;;3.87;100.00;99187.00;4944457;28;20726;-60
2022/12/01 00:18:51;;;;;;;0.00;0.00;;;;;;;3.84;100.00;99185.44;4962292;28;20249;-60
2022/12/01 00:21:19;;;;;;;0.10;0.10;;;;;;;3.85;100.00;99181.94;4963581;28;20800;-60
2022/12/01 00:23:50;;;;;;;0.00;0.00;;;;;;;3.84;100.00;99172.53;4947599;28;20682;-60
2022/12/01 00:26:18;;;;;;;0.00;0.00;;;;;;;3.77;100.00;99177.22;4958491;28;20221;-61
2022/12/01 00:28:48;;;;;;;0.10;0.10;;;;;;;3.81;100.00;99176.13;4954421;28;20253;-61
2022/12/01 00:31:14;;;;;;;0.10;0.10;;;;;;;3.78;100.00;99171.13;4965863;28;20238;-61
2022/12/01 00:33:41;;;;;;;0.00;0.00;;;;;;;3.76;100.00;99174.75;4964595;28;20849;-62
2022/12/01 00:36:08;;;;;;;0.00;0.00;;;;;;;3.69;100.00;99172.53;4968326;28;20238;-61
2022/12/01 00:38:35;;;;;;;0.10;0.10;;;;;;;3.64;100.00;99174.56;4965660;28;20602;-61
2022/12/01 00:41:05;;;;;;;0.00;0.00;;;;;;;3.61;100.00;99185.09;4968088;28;20301;-61
2022/12/01 00:43:32;;;;;;;0.10;0.10;;;;;;;3.69;100.00;99182.88;4964566;28;20283;-61
2022/12/01 00:45:58;;;;;;;0.10;0.10;;;;;;;3.63;100.00;99180.66;4968087;28;20705;-61
2022/12/01 00:48:25;;;;;;;0.00;0.00;;;;;;;3.67;100.00;99181.31;4965199;28;20885;-60
2022/12/01 00:50:55;;;;;;;0.00;0.00;;;;;;;3.61;100.00;99182.50;4967907;28;20250;-61
2022/12/01 00:53:23;;;;;;;0.00;0.00;;;;;;;3.61;100.00;99187.66;4965449;28;20313;-61
2022/12/01 00:55:49;;;;;;;0.00;0.00;;;;;;;3.62;100.00;99194.50;4966335;28;20237;-61
2022/12/01 00:58:17;;;;;;;0.00;0.00;;;;;;;3.64;100.00;99187.47;4967903;28;20766;-61
2022/12/01 01:00:44;;;;;;;0.10;0.10;;;;;;;3.55;100.00;99188.03;4964850;28;20226;-62
2022/12/01 01:03:11;;;;;;;0.10;0.10;;;;;;;3.58;100.00;99192.19;4967300;28;20221;-61
2022/12/01 01:05:39;;;;;;;0.00;0.00;;;;;;;3.55;100.00;99190.63;4964239;28;20217;-61
2022/12/01 01:08:07;;;;;;;0.00;0.00;;;;;;;3.56;100.00;99194.03;4967119;28;20257;-63
2022/12/01 01:10:33;;;;;;;0.00;0.00;;;;;;;3.52;100.00;99198.53;4962779;28;20701;-61
2022/12/01 01:13:00;;;;;;;0.00;0.00;;;;;;;3.53;100.00;99202.78;4967697;28;20688;-61
2022/12/01 01:15:28;;;;;;;0.03;0.03;;;;;;;3.46;99.99;99197.16;4963189;28;20614;-61
2022/12/01 01:17:54;;;;;;;0.00;0.00;;;;;;;3.46;99.60;99201.50;4965905;28;20841;-61
2022/12/01 01:20:21;;;;;;;0.00;0.00;;;;;;;3.48;99.52;99208.22;4967011;28;20733;-61
2022/12/01 01:22:47;;;;;;;0.00;0.00;;;;;;;3.48;99.14;99205.66;4964640;28;20225;-61
2022/12/01 01:25:14;;;;;;;0.00;0.00;;;;;;;3.47;98.68;99203.16;4981412;28;20776;-61
2022/12/01 01:27:40;;;;;;;0.00;0.00;;;;;;;3.51;98.36;99204.63;4962532;28;20808;-61
2022/12/01 01:30:08;;;;;;;0.00;0.00;;;;;;;3.44;96.07;99208.50;4966663;28;20728;-61
2022/12/01 01:32:38;;;;;;;0.00;0.00;;;;;;;3.40;97.58;99213.84;4964090;28;20222;-61
2022/12/01 01:35:07;;;;;;;0.10;0.10;;;;;;;3.39;96.25;99221.69;4966859;28;20308;-61
2022/12/01 01:37:33;;;;;;;0.00;0.00;;;;;;;3.34;95.47;99214.19;4963740;28;20728;-61
2022/12/01 01:40:00;;;;;;;0.10;0.10;;;;;;;3.40;94.35;99213.03;4961653;28;20241;-62
2022/12/01 01:42:26;;;;;;;0.00;0.00;;;;;;;3.34;93.47;99224.50;4945780;28;20222;-61
2022/12/01 01:44:54;;;;;;;0.10;0.10;;;;;;;3.34;95.33;99215.97;4963384;28;20264;-61
2022/12/01 01:47:31;;;;;;;0.00;0.00;;;;;;;3.29;94.94;99221.38;4948129;28;20230;-61
2022/12/01 01:50:05;;;;;;;0.00;0.00;;;;;;;3.28;94.15;99216.31;4957701;28;20638;-61
2022/12/01 01:52:32;;;;;;;0.03;0.03;;;;;;;3.27;95.10;99223.22;4954796;28;20268;-61
2022/12/01 01:54:59;;;;;;;0.10;0.10;;;;;;;3.22;93.89;99217.50;4955865;28;20232;-61
2022/12/01 01:57:29;;;;;;;0.10;0.10;;;;;;;3.22;95.26;99225.22;4952080;28;20309;-61
2022/12/01 02:00:01;;;;;;;0.00;0.00;;;;;;;3.23;95.31;99225.16;4959795;28;20233;-61
2022/12/01 02:02:27;;;;;;;0.00;0.00;;;;;;;3.23;94.43;99217.41;4955639;28;20288;-62
2022/12/01 02:04:59;;;;;;;0.00;0.00;;;;;;;3.27;92.90;99219.81;4955137;28;20227;-61
2022/12/01 02:07:28;;;;;;;0.10;0.10;;;;;;;3.30;92.29;99228.19;4961158;28;20225;-61
2022/12/01 02:09:55;;;;;;;0.00;0.00;;;;;;;3.23;93.79;99216.56;4955855;28;20225;-61
2022/12/01 02:12:39;;;;;;;0.00;0.00;;;;;;;3.24;94.50;99223.38;4964380;28;20308;-61
2022/12/01 02:15:18;;;;;;;0.00;0.00;;;;;;;3.29;93.86;99215.41;4965625;28;20230;-61
2022/12/01 02:17:52;;;;;;;0.00;0.00;;;;;;;3.28;94.82;99214.56;4963262;28;20240;-61
2022/12/01 02:20:42;;;;;;;0.00;0.00;;;;;;;3.31;93.54;99208.41;4965890;28;20416;-61
2022/12/01 02:23:30;;;;;;;0.00;0.00;;;;;;;3.28;92.73;99206.00;4962684;28;20280;-61
2022/12/01 02:26:14;;;;;;;0.00;0.00;;;;;;;3.23;94.28;99203.66;4963014;28;20749;-60
2022/12/01 02:29:09;;;;;;;0.00;0.00;;;;;;;3.20;93.62;99203.84;4961937;28;20292;-61
2022/12/01 02:31:41;;;;;;;0.03;0.03;;;;;;;3.13;92.59;99198.22;4962852;28;20222;-61
2022/12/01 02:34:14;;;;;;;0.00;0.00;;;;;;;3.15;93.06;99198.97;4965905;28;20225;-61
2022/12/01 02:36:47;;;;;;;0.03;0.03;;;;;;;3.18;93.66;99198.78;4963261;28;20569;-61
2022/12/01 02:39:21;;;;;;;0.00;0.00;;;;;;;3.07;93.97;99196.00;4966265;28;20241;-61
2022/12/01 02:41:50;;;;;;;0.00;0.00;;;;;;;3.10;95.13;99195.81;4963783;28;20236;-61
2022/12/01 02:44:22;;;;;;;0.00;0.00;;;;;;;3.12;94.65;99201.72;4965302;28;20226;-61
2022/12/01 02:46:56;;;;;;;0.10;0.10;;;;;;;3.17;94.97;99199.72;4963132;28;20233;-61
2022/12/01 02:49:29;;;;;;;0.00;0.00;;;;;;;3.08;93.91;99200.25;4964032;28;20229;-61
2022/12/01 02:51:58;;;;;;;0.00;0.00;;;;;;;3.06;94.47;99197.75;4965239;28;20622;-62
2022/12/01 02:54:28;;;;;;;0.00;0.00;;;;;;;3.04;95.04;99196.19;4963572;28;20229;-61
2022/12/01 02:56:54;;;;;;;0.00;0.00;;;;;;;3.11;94.42;99207.81;4965343;28;20621;-62
2022/12/01 02:59:21;;;;;;;0.03;0.03;;;;;;;3.07;95.40;99204.59;4965196;28;20645;-62
2022/12/01 03:02:00;;;;;;;0.00;0.00;;;;;;;2.97;94.58;99202.59;4963340;28;20314;-61
2022/12/01 03:04:52;;;;;;;0.07;0.07;;;;;;;3.03;92.96;99197.94;4962861;28;20646;-61
2022/12/01 03:07:34;;;;;;;0.00;0.00;;;;;;;2.99;92.40;99203.34;4965125;28;20225;-62
2022/12/01 03:10:14;;;;;;;0.00;0.00;;;;;;;2.84;93.53;99198.16;4962269;28;20234;-62
2022/12/01 03:12:50;;;;;;;0.00;0.00;;;;;;;2.84;92.97;99205.06;4962184;28;20233;-62
2022/12/01 03:15:25;;;;;;;0.00;0.00;;;;;;;2.80;94.21;99199.25;4964895;28;20352;-61
2022/12/01 03:18:01;;;;;;;0.00;0.00;;;;;;;2.88;93.15;99191.09;4961750;28;20320;-61
2022/12/01 03:20:34;;;;;;;0.00;0.00;;;;;;;2.79;94.14;99195.00;4962784;28;20225;-61
2022/12/01 03:23:08;;;;;;;0.00;0.00;;;;;;;2.74;93.68;99197.00;4965124;28;20916;-61
2022/12/01 03:25:37;;;;;;;0.00;0.00;;;;;;;2.72;93.48;99193.69;4964376;28;20597;-61
2022/12/01 03:28:05;;;;;;;0.00;0.00;;;;;;;2.68;94.42;99199.94;4968595;28;20244;-61
2022/12/01 03:30:34;;;;;;;0.00;0.00;;;;;;;2.69;93.88;99188.69;4965572;28;20280;-61
2022/12/01 03:33:08;;;;;;;0.00;0.00;;;;;;;2.70;93.34;99204.09;4968634;28;20241;-61
2022/12/01 03:35:40;;;;;;;0.00;0.00;;;;;;;2.68;93.41;99190.47;4966792;28;20221;-60
2022/12/01 03:38:12;;;;;;;0.00;0.00;;;;;;;2.61;92.45;99195.16;4968850;28;20834;-61
2022/12/01 03:40:40;;;;;;;0.00;0.00;;;;;;;2.64;93.14;99191.56;4966125;28;20235;-61
2022/12/01 03:43:09;;;;;;;0.10;0.10;;;;;;;2.65;93.34;99195.78;4968881;28;20728;-60
2022/12/01 03:45:43;;;;;;;0.00;0.00;;;;;;;2.61;91.72;99195.16;4966464;28;20225;-61
2022/12/01 03:48:12;;;;;;;0.00;0.00;;;;;;;2.62;92.10;99190.81;4968732;28;20805;-61
2022/12/01 03:50:49;;;;;;;0.00;0.00;;;;;;;2.62;92.33;99189.06;4966149;28;20287;-61
2022/12/01 03:53:21;;;;;;;0.00;0.00;;;;;;;2.61;93.19;99186.56;4967599;28;20231;-63
2022/12/01 03:55:55;;;;;;;0.00;0.00;;;;;;;2.64;92.25;99184.66;4966593;28;20825;-62
2022/12/01 03:58:29;;;;;;;0.00;0.00;;;;;;;2.62;92.47;99190.81;4966331;28;20274;-61
2022/12/01 04:00:56;;;;;;;0.00;0.00;;;;;;;2.66;92.20;99187.13;4968447;28;20380;-61
2022/12/01 04:03:26;;;;;;;0.00;0.00;;;;;;;2.64;93.01;99201.88;4966486;28;20243;-61
2022/12/01 04:05:52;;;;;;;0.00;0.00;;;;;;;2.61;92.81;99184.00;4967896;28;20248;-60
2022/12/01 04:08:19;;;;;;;0.00;0.00;;;;;;;2.61;93.10;99189.16;4968855;28;20453;-61
2022/12/01 04:10:46;;;;;;;0.10;0.10;;;;;;;2.64;92.92;99196.72;4965920;28;20594;-61
2022/12/01 04:13:21;;;;;;;0.00;0.00;;;;;;;2.57;94.21;99210.84;4968693;28;20702;-61
2022/12/01 04:15:47;;;;;;;0.00;0.00;;;;;;;2.59;93.09;99206.44;4966045;28;20240;-62
2022/12/01 04:18:14;;;;;;;0.10;0.10;;;;;;;2.59;94.27;99203.88;4967890;28;20776;-61
2022/12/01 04:20:42;;;;;;;0.00;0.00;;;;;;;2.55;94.92;99207.53;4965746;28;20217;-60
2022/12/01 04:23:09;;;;;;;0.00;0.00;;;;;;;2.56;94.21;99201.47;4968096;28;20238;-61
2022/12/01 04:25:35;;;;;;;0.00;0.00;;;;;;;2.51;94.05;99205.13;4957692;28;20222;-61
2022/12/01 04:28:04;;;;;;;0.00;0.00;;;;;;;2.58;94.05;99204.78;4968089;28;20894;-61
2022/12/01 04:33:05;;;;;;;0.00;0.00;;;;;;;2.56;94.78;99206.63;4940334;23;20329;-61
2022/12/01 04:35:31;;;;;;;0.00;0.00;;;;;;;2.58;94.17;99202.19;4927092;28;20242;-60
2022/12/01 04:37:59;;;;;;;0.10;0.10;;;;;;;2.60;94.31;99203.78;4930755;28;20231;-60
2022/12/01 04:40:26;;;;;;;0.00;0.00;;;;;;;2.55;92.75;99207.53;4927459;28;20230;-60
2022/12/01 04:42:54;;;;;;;0.00;0.00;;;;;;;2.54;94.02;99208.44;4931103;28;20448;-60
2022/12/01 04:45:20;;;;;;;0.00;0.00;;;;;;;2.54;94.35;99198.13;4930663;28;20250;-61
2022/12/01 04:47:51;;;;;;;0.00;0.00;;;;;;;2.49;94.93;99199.22;4915717;28;20250;-61
2022/12/01 04:50:18;;;;;;;0.00;0.00;;;;;;;2.54;93.89;99206.72;4930141;28;20226;-60
2022/12/01 04:52:45;;;;;;;0.00;0.00;;;;;;;2.61;93.61;99205.47;4927976;28;20234;-61
2022/12/01 04:55:14;;;;;;;0.03;0.03;;;;;;;2.56;93.40;99207.47;4929522;28;20337;-61
2022/12/01 04:57:41;;;;;;;0.00;0.00;;;;;;;2.58;93.45;99212.50;4926613;28;20246;-61
2022/12/01 05:00:12;;;;;;;0.00;0.00;;;;;;;2.64;93.14;99213.03;4929089;28;20237;-60
2022/12/01 05:02:41;;;;;;;0.10;0.10;;;;;;;2.60;94.40;99208.94;4926848;28;20227;-60
2022/12/01 05:05:09;;;;;;;0.00;0.00;;;;;;;2.57;94.89;99205.69;4929436;28;20282;-61
2022/12/01 05:07:35;;;;;;;0.00;0.00;;;;;;;2.57;93.74;99203.13;4926765;28;20223;-60
2022/12/01 05:10:02;;;;;;;0.10;0.10;;;;;;;2.52;92.58;99203.38;4929970;28;20238;-60
2022/12/01 05:12:30;;;;;;;0.00;0.00;;;;;;;2.53;94.13;99217.09;4927375;28;20223;-61
2022/12/01 05:14:57;;;;;;;0.00;0.00;;;;;;;2.53;94.15;99211.94;4929270;28;20231;-61
2022/12/01 05:17:23;;;;;;;0.00;0.00;;;;;;;2.51;94.90;99210.28;4919384;28;20223;-60
2022/12/01 05:22:34;;;;;;;0.00;0.00;;;;;;;2.45;94.12;99217.53;4926351;28;20227;-61
2022/12/01 05:25:01;;;;;;;0.07;0.07;;;;;;;2.42;94.71;99218.50;4930128;28;20246;-61
2022/12/01 05:27:27;;;;;;;0.10;0.10;;;;;;;2.45;95.44;99220.91;4930476;28;20219;-61
2022/12/01 05:29:55;;;;;;;0.00;0.00;;;;;;;2.38;94.76;99226.50;4929915;28;20234;-61
2022/12/01 05:32:21;;;;;;;0.00;0.00;;;;;;;2.41;95.11;99216.84;4928827;28;20227;-60
2022/12/01 05:34:48;;;;;;;0.00;0.00;;;;;;;2.45;95.20;99220.09;4929294;28;20242;-61
2022/12/01 05:37:17;;;;;;;0.00;0.00;;;;;;;2.37;94.85;99220.50;4929753;28;20238;-64
2022/12/01 05:39:44;;;;;;;0.00;0.00;;;;;;;2.31;95.39;99226.84;4927257;28;20259;-61
2022/12/01 05:42:10;;;;;;;0.00;0.00;;;;;;;2.32;96.06;99225.91;4934092;28;20247;-60
2022/12/01 05:44:37;;;;;;;0.00;0.00;;;;;;;2.34;96.63;99225.81;4927863;28;20222;-61
2022/12/01 05:47:05;;;;;;;0.00;0.00;;;;;;;2.36;96.12;99221.41;4933157;28;20236;-61
2022/12/01 05:49:32;;;;;;;0.00;0.00;;;;;;;2.38;96.49;99221.34;4927198;28;20266;-61
2022/12/01 05:51:58;;;;;;;0.00;0.00;;;;;;;2.33;97.53;99221.59;4928525;28;20231;-61
2022/12/01 05:54:25;;;;;;;0.00;0.00;;;;;;;2.35;97.03;99218.03;4923877;28;20218;-61
2022/12/01 05:56:54;;;;;;;0.00;0.00;;;;;;;2.43;95.86;99221.94;4919356;28;20227;-61
2022/12/01 05:59:20;;;;;;;0.00;0.00;;;;;;;2.37;97.08;99223.09;4927759;28;20227;-61
2022/12/01 06:01:47;;;;;;;0.03;0.03;;;;;;;2.41;95.36;99224.56;4925551;28;20230;-61
2022/12/01 06:04:14;;;;;;;0.00;0.00;;;;;;;2.40;95.30;99228.06;4932569;28;20242;-60
2022/12/01 06:06:41;;;;;;;0.10;0.10;;;;;;;2.33;96.37;99227.59;4925273;28;20227;-60
2022/12/01 06:09:08;;;;;;;0.10;0.10;;;;;;;2.36;96.19;99234.31;4932475;28;20235;-61
2022/12/01 06:11:37;;;;;;;0.00;0.00;;;;;;;2.40;95.95;99232.41;4929620;28;20321;-61
2022/12/01 06:14:04;;;;;;;0.10;0.10;;;;;;;2.38;96.60;99229.09;4928875;28;20234;-61
2022/12/01 06:16:30;;;;;;;0.10;0.10;;;;;;;2.38;95.95;99229.91;4925084;28;20232;-61
2022/12/01 06:18:57;;;;;;;0.00;0.00;;;;;;;2.39;96.45;99226.41;4928479;28;20246;-61
2022/12/01 06:21:25;;;;;;;0.00;0.00;;;;;;;2.42;95.75;99239.13;4927471;28;20699;-61
2022/12/01 06:23:51;;;;;;;0.00;0.00;;;;;;;2.33;95.11;99242.19;4928933;28;20278;-61
2022/12/01 06:26:18;;;;;;;0.00;0.00;;;;;;;2.31;95.50;99239.72;4929006;28;20230;-60
2022/12/01 06:28:44;;;;;;;0.00;0.00;;;;;;;2.26;96.43;99230.56;4925027;28;20280;-61
2022/12/01 06:31:11;;;;;;;0.00;0.00;;;;;;;2.28;95.98;99234.72;4929676;28;20243;-61
2022/12/01 06:33:37;;;;;;;0.00;0.00;;;;;;;2.27;97.00;99237.38;4925041;28;20227;-60
2022/12/01 06:36:06;;;;;;;0.10;0.10;;;;;;;2.27;96.67;99237.38;4926470;28;20294;-61
2022/12/01 06:38:36;;;;;;;0.00;0.00;;;;;;;2.34;95.95;99241.28;4925552;28;20235;-61
2022/12/01 06:41:03;;;;;;;0.00;0.00;;;;;;;2.36;95.92;99236.88;4926150;28;20243;-61
2022/12/01 06:43:30;;;;;;;0.00;0.00;;;;;;;2.35;96.19;99243.78;4926793;28;20226;-61
2022/12/01 06:45:57;;;;;;;0.00;0.00;;;;;;;2.32;95.80;99243.97;4927336;28;20236;-61
2022/12/01 06:48:23;;;;;;;0.00;0.00;;;;;;;2.42;94.55;99251.19;4923958;28;20925;-61
2022/12/01 06:50:50;;;;;;;0.00;0.00;;;;;;;2.30;95.95;99253.50;4927939;28;20599;-60
2022/12/01 06:53:16;;;;;;;0.00;0.00;;;;;;;2.35;94.04;99251.53;4930014;28;20624;-60
2022/12/01 06:55:44;;;;;;;0.00;0.00;;;;;;;2.44;94.08;99254.50;4926644;28;20641;-60
2022/12/01 06:58:11;;;;;;;0.00;0.00;;;;;;;2.46;94.23;99256.06;4929433;28;20230;-61
2022/12/01 07:00:37;;;;;;;0.00;0.00;;;;;;;2.44;94.25;99259.66;4924289;28;20230;-61
2022/12/01 07:03:04;;;;;;;0.00;0.00;;;;;;;2.48;93.62;99258.59;4927905;28;20236;-61
2022/12/01 07:05:30;;;;;;;0.00;0.00;;;;;;;2.41;94.27;99260.66;4926536;28;20223;-61
2022/12/01 07:07:57;;;;;;;0.00;0.00;;;;;;;2.42;94.37;99266.66;4928734;28;20801;-61
2022/12/01 07:10:24;;;;;;;0.00;0.00;;;;;;;2.39;94.79;99259.09;4922073;28;20231;-61
2022/12/01 07:12:51;;;;;;;0.00;0.00;;;;;;;2.44;95.53;99270.78;4927155;28;20242;-64
2022/12/01 07:15:18;;;;;;;0.00;0.00;;;;;;;2.46;93.96;99275.88;4924262;29;20545;-61
2022/12/01 07:17:45;;;;;;;0.00;0.00;;;;;;;2.42;94.08;99274.38;4922606;28;20588;-61
2022/12/01 07:20:12;;;;;;;0.10;0.10;;;;;;;2.40;94.56;99269.28;4930237;28;20241;-61
2022/12/01 07:22:41;;;;;;;0.00;0.00;;;;;;;2.47;94.36;99275.78;4925046;28;20238;-61
2022/12/01 07:25:08;;;;;;;0.00;0.00;;;;;;;2.31;94.66;99272.38;4928786;28;20721;-61
2022/12/01 07:27:35;;;;;;;0.00;0.00;;;;;;;2.38;94.45;99271.13;4929967;28;20234;-61
2022/12/01 07:30:03;;;;;;;0.00;0.00;;;;;;;2.44;94.12;99273.38;4929711;28;20294;-61
2022/12/01 07:32:30;;;;;;;0.00;0.00;;;;;;;2.45;94.23;99274.22;4917281;28;20226;-61
2022/12/01 07:34:56;;;;;;;0.07;0.07;;;;;;;2.48;95.26;99280.03;4928564;28;20235;-61
2022/12/01 07:37:23;;;;;;;0.10;0.10;;;;;;;2.34;95.55;99272.19;4928030;28;20231;-61
2022/12/01 07:39:50;;;;;;;0.00;0.00;;;;;;;2.36;95.26;99272.94;4928388;28;20293;-61
2022/12/01 07:42:16;;;;;;;0.00;0.00;;;;;;;2.39;95.50;99283.09;4928489;28;20250;-61
2022/12/01 07:44:43;;;;;;;0.00;0.00;;;;;;;2.36;95.18;99280.69;4924188;28;20239;-61
2022/12/01 07:47:14;;;;;;;0.00;0.00;;;;;;;2.46;94.66;99283.59;4927884;28;20231;-61
2022/12/01 07:49:40;;;;;;;0.03;0.03;;;;;;;2.29;94.46;99292.22;4924672;28;20227;-61
2022/12/01 07:52:07;;;;;;;0.00;0.00;;;;;;;2.34;95.78;99293.66;4926318;28;20245;-61
2022/12/01 07:54:33;;;;;;;0.00;0.00;;;;;;;2.36;95.96;99296.97;4925650;28;20233;-62
2022/12/01 07:57:00;;;;;;;0.10;0.10;;;;;;;2.32;96.07;99297.22;4929234;28;20238;-61
2022/12/01 07:59:26;;;;;;;0.10;0.10;;;;;;;2.38;95.84;99301.22;4924220;28;20280;-61
2022/12/01 08:01:53;;;;;;;0.00;0.00;;;;;;;2.30;94.90;99299.88;4923177;28;20275;-61
2022/12/01 08:04:21;;;;;;;0.00;0.00;;;;;;;2.41;95.70;99301.88;4926949;28;20234;-61
2022/12/01 08:06:48;;;;;;;0.00;0.00;;;;;;;2.44;95.27;99300.91;4923974;28;20227;-61
2022/12/01 08:09:14;;;;;;;0.00;0.00;;;;;;;2.48;95.02;99297.25;4928790;28;20234;-62
2022/12/01 08:11:41;;;;;;;0.00;0.00;;;;;;;2.42;95.98;99303.53;4924726;28;20231;-66
2022/12/01 08:14:10;;;;;;;0.00;0.00;;;;;;;2.47;95.24;99303.31;4930858;28;20325;-61
2022/12/01 08:16:37;;;;;;;0.10;0.10;;;;;;;2.45;95.15;99302.56;4929846;28;20257;-61
2022/12/01 08:19:03;;;;;;;0.00;0.00;;;;;;;2.46;94.92;99301.66;4932667;28;20603;-61
2022/12/01 08:21:32;;;;;;;0.00;0.00;;;;;;;2.47;95.63;99304.13;4931489;28;20225;-61
2022/12/01 08:23:59;;;;;;;0.00;0.00;;;;;;;2.58;95.57;99302.72;4931309;28;20231;-61
2022/12/01 08:26:26;;;;;;;0.00;0.00;;;;;;;2.41;94.80;99304.44;4927631;28;20231;-61
2022/12/01 08:28:53;;;;;;;0.00;0.00;;;;;;;2.55;94.96;99302.88;4930315;28;20242;-61
2022/12/01 08:31:23;;;;;;;0.00;0.00;;;;;;;2.49;94.92;99302.31;4929897;28;20245;-61
2022/12/01 08:33:50;;;;;;;0.00;0.00;;;;;;;2.49;93.79;99307.44;4928719;28;20234;-61
2022/12/01 08:36:17;;;;;;;0.00;0.00;;;;;;;2.55;93.96;99303.72;4930862;28;20830;-62
2022/12/01 08:38:46;;;;;;;0.00;0.00;;;;;;;2.58;94.29;99308.72;4927626;28;20806;-62
2022/12/01 08:41:13;;;;;;;0.00;0.00;;;;;;;2.62;93.75;99306.78;4932430;28;20883;-61
2022/12/01 08:43:43;;;;;;;0.00;0.00;;;;;;;2.68;93.05;99305.63;4926275;28;20230;-61
2022/12/01 08:46:10;;;;;;;0.00;0.00;;;;;;;2.71;94.64;99300.28;4932401;28;20275;-61
2022/12/01 08:48:38;;;;;;;0.00;0.00;;;;;;;2.78;93.40;99310.19;4926974;28;20226;-61
2022/12/01 08:51:06;;;;;;;0.10;0.10;;;;;;;2.77;92.82;99310.28;4930567;28;20250;-61
2022/12/01 08:53:34;;;;;;;0.00;0.00;;;;;;;2.75;94.54;99309.53;4924979;28;20231;-61
2022/12/01 08:56:05;;;;;;;0.00;0.00;;;;;;;2.66;92.56;99323.75;4931474;28;20219;-62
2022/12/01 08:58:31;;;;;;;0.00;0.00;;;;;;;2.82;93.58;99325.50;4927062;28;20675;-62
2022/12/01 09:01:02;;;;;;;0.00;0.00;;;;;;;2.80;93.25;99328.16;4929397;28;20684;-60
2022/12/01 09:03:30;;;;;;;0.00;0.00;;;;;;;2.83;92.79;99330.56;4926543;28;20537;-59
2022/12/01 09:06:02;;;;;;;0.00;0.00;;;;;;;2.73;92.79;99339.72;4930105;28;20234;-60
2022/12/01 09:08:31;;;;;;;0.00;0.00;;;;;;;2.73;93.92;99335.41;4942660;28;20938;-60
2022/12/01 09:10:58;;;;;;;0.00;0.00;;;;;;;2.76;95.18;99332.66;4927346;28;20235;-59
2022/12/01 09:13:28;;;;;;;0.00;0.00;;;;;;;2.74;93.66;99331.91;4924461;28;20227;-59
2022/12/01 09:15:57;;;;;;;0.00;0.00;;;;;;;2.69;94.53;99336.47;4929724;28;20254;-60
2022/12/01 09:18:24;;;;;;;0.00;0.00;;;;;;;2.79;94.99;99335.06;4926922;28;20251;-60
2022/12/01 09:20:50;;;;;;;0.00;0.00;;;;;;;2.82;93.77;99333.25;4927477;28;20573;-60
2022/12/01 09:23:17;;;;;;;0.10;0.10;;;;;;;2.66;94.62;99334.06;4927137;28;20242;-59
2022/12/01 09:25:44;;;;;;;0.00;0.00;;;;;;;2.75;93.77;99338.72;4926455;28;20246;-60
2022/12/01 09:28:11;;;;;;;0.00;0.00;;;;;;;2.76;94.60;99349.84;4929286;28;20239;-60
2022/12/01 09:30:38;;;;;;;0.00;0.00;;;;;;;2.71;94.79;99344.13;4926699;28;20234;-60
2022/12/01 09:33:05;;;;;;;0.00;0.00;;;;;;;2.74;94.01;99342.22;4927778;28;20703;-60
2022/12/01 09:35:33;;;;;;;0.10;0.10;;;;;;;2.86;93.50;99348.44;4922171;28;20580;-60
2022/12/01 09:38:00;;;;;;;0.00;0.00;;;;;;;2.83;92.90;99343.47;4929497;28;20712;-60
2022/12/01 09:40:31;;;;;;;0.10;0.10;;;;;;;2.89;93.32;99345.69;4927977;28;20231;-61
2022/12/01 09:43:01;;;;;;;0.10;0.10;;;;;;;2.87;92.79;99346.72;4928303;28;20233;-61
2022/12/01 09:45:31;;;;;;;0.00;0.00;;;;;;;2.98;93.96;99346.13;4926305;28;20550;-60
2022/12/01 09:48:02;;;;;;;0.00;0.00;;;;;;;2.97;92.71;99345.28;4927771;28;20235;-61
2022/12/01 09:50:32;;;;;;;0.00;0.00;;;;;;;3.03;92.96;99344.97;4926338;28;20310;-61
2022/12/01 09:53:02;;;;;;;0.00;0.00;;;;;;;3.01;92.70;99343.38;4929228;28;20297;-60
2022/12/01 09:55:31;;;;;;;0.00;0.00;;;;;;;2.98;91.95;99339.22;4927299;28;20227;-61
2022/12/01 09:58:00;;;;;;;0.00;0.00;;;;;;;3.03;93.34;99339.81;4927738;29;20245;-61
2022/12/01 10:00:30;;;;;;;0.10;0.10;;;;;;;3.14;92.74;99328.06;4927459;28;20750;-61
2022/12/01 10:03:07;;;;;;;0.00;0.00;;;;;;;3.15;92.58;99327.97;4932916;28;20235;-61
2022/12/01 10:05:41;;;;;;;0.10;0.10;;;;;;;2.95;92.64;99336.81;4927037;28;20726;-60
2022/12/01 10:08:15;;;;;;;0.03;0.03;;;;;;;2.95;93.52;99326.50;4931107;28;20231;-61
2022/12/01 10:10:47;;;;;;;0.00;0.00;;;;;;;2.91;94.37;99320.66;4926528;28;20282;-60
2022/12/01 10:13:17;;;;;;;0.07;0.07;;;;;;;2.94;93.39;99315.34;4912097;29;20617;-61
2022/12/01 10:15:51;;;;;;;0.03;0.03;;;;;;;2.91;94.17;99312.09;4928406;28;20243;-60
2022/12/01 10:18:31;;;;;;;0.03;0.03;;;;;;;2.98;93.34;99316.00;4927727;28;20227;-61
2022/12/01 10:21:06;;;;;;;0.00;0.00;;;;;;;2.94;94.98;99317.09;4924912;28;20282;-66
2022/12/01 10:23:54;;;;;;;0.00;0.00;;;;;;;3.00;94.36;99311.59;4927334;28;20725;-61
2022/12/01 10:26:27;;;;;;;0.00;0.00;;;;;;;2.94;95.27;99310.19;4928872;28;20211;-60
2022/12/01 10:29:08;;;;;;;0.00;0.00;;;;;;;3.03;93.65;99298.53;4930540;28;20361;-61
2022/12/01 10:31:40;;;;;;;0.00;0.00;;;;;;;2.86;94.97;99306.38;4927003;28;20315;-61
2022/12/01 10:34:15;;;;;;;0.10;0.10;;;;;;;2.83;94.78;99301.38;4929401;28;20644;-61
2022/12/01 10:36:42;;;;;;;0.00;0.00;;;;;;;2.86;96.41;99301.22;4927381;28;20496;-61
2022/12/01 10:39:18;;;;;;;0.00;0.00;;;;;;;2.89;95.96;99303.63;4930018;28;20231;-61
2022/12/01 10:41:47;;;;;;;0.00;0.00;;;;;;;2.75;96.74;99300.06;4925851;28;20299;-60
2022/12/01 10:44:15;;;;;;;0.00;0.00;;;;;;;2.79;95.85;99291.25;4926114;28;20222;-60
2022/12/01 10:46:46;;;;;;;0.00;0.00;;;;;;;3.00;96.22;99293.53;4948512;23;20860;-60
2022/12/01 10:49:16;;;;;;;0.00;0.00;;;;;;;2.88;95.79;99297.63;4976075;28;20241;-60
2022/12/01 10:51:52;;;;;;;0.07;0.07;;;;;;;3.05;94.59;99293.28;4972956;28;20319;-60
2022/12/01 10:54:22;;;;;;;0.00;0.00;;;;;;;2.94;95.86;99291.31;4969029;28;20284;-60
2022/12/01 10:56:59;;;;;;;0.00;0.00;;;;;;;2.87;95.53;99287.41;4962358;28;20811;-60
2022/12/01 10:59:30;;;;;;;0.00;0.00;;;;;;;3.03;95.78;99288.22;4959435;28;20273;-60
2022/12/01 11:01:58;;;;;;;0.10;0.10;;;;;;;3.14;95.48;99284.19;4964120;28;20235;-60
2022/12/01 11:04:34;;;;;;;0.00;0.00;;;;;;;3.19;94.84;99287.31;4966025;28;20217;-60
2022/12/01 11:07:01;;;;;;;0.00;0.00;;;;;;;2.99;95.24;99284.16;4966239;28;20229;-60
2022/12/01 11:09:29;;;;;;;0.00;0.00;;;;;;;3.13;95.27;99282.53;4961244;28;20292;-60
2022/12/01 11:11:58;;;;;;;0.10;0.10;;;;;;;3.27;94.13;99274.81;4967839;28;20249;-60
2022/12/01 11:14:33;;;;;;;0.00;0.00;;;;;;;3.15;94.52;99272.97;4960565;28;20690;-61
2022/12/01 11:17:15;;;;;;;0.00;0.00;;;;;;;3.07;94.28;99263.06;4968513;28;20237;-60
2022/12/01 11:19:43;;;;;;;0.00;0.00;;;;;;;3.20;93.81;99258.88;4965929;28;20236;-60
2022/12/01 11:22:20;;;;;;;0.00;0.00;;;;;;;3.08;94.48;99257.84;4966544;28;20657;-59
2022/12/01 11:24:58;;;;;;;0.00;0.00;;;;;;;3.17;93.92;99260.81;4961817;28;20240;-60
2022/12/01 11:27:26;;;;;;;0.10;0.10;;;;;;;3.25;93.45;99246.53;4967036;28;20233;-60
2022/12/01 11:29:56;;;;;;;0.00;0.00;;;;;;;3.28;92.91;99247.28;4972587;28;20693;-60
2022/12/01 11:32:25;;;;;;;0.10;0.10;;;;;;;3.23;93.92;99250.09;4969585;28;20231;-60
2022/12/01 11:34:57;;;;;;;0.10;0.10;;;;;;;3.08;94.29;99247.53;4967535;28;20734;-60
2022/12/01 11:37:31;;;;;;;0.00;0.00;;;;;;;3.13;93.00;99249.00;4965679;28;20221;-61
2022/12/01 11:40:06;;;;;;;0.00;0.00;;;;;;;3.22;92.64;99241.56;4963958;28;20229;-60
2022/12/01 11:42:35;;;;;;;0.00;0.00;;;;;;;3.16;93.09;99251.41;4967501;28;20237;-60
2022/12/01 11:45:07;;;;;;;0.10;0.10;;;;;;;3.21;93.73;99247.63;4968655;28;20241;-59
2022/12/01 11:47:33;;;;;;;0.10;0.10;;;;;;;3.30;93.14;99238.50;4975285;28;20229;-61
2022/12/01 11:50:04;;;;;;;0.10;0.10;;;;;;;3.39;92.94;99237.16;4971040;28;20312;-60
2022/12/01 11:52:35;;;;;;;0.10;0.10;;;;;;;3.32;92.87;99236.69;4969773;28;20238;-60
2022/12/01 11:55:19;;;;;;;0.00;0.00;;;;;;;3.39;93.05;99232.81;4968694;28;20730;-60
2022/12/01 11:57:49;;;;;;;0.10;0.10;;;;;;;3.51;92.54;99233.03;4970519;28;20301;-60